Time,TemperatureF,DewpointF,PressureIn,WindDirection,WindDirectionDegrees,WindSpeedMPH,WindSpeedGustMPH,Humidity,HourlyPrecipIn,Conditions,Clouds,dailyrainin,SoftwareType,DateUTC
2013-03-22 00:00:00,47.9,44.8,29.87,SSE,157,0.0,1.0,89,0.00,,,0.00,WeatherDisplay:10.37,2013-03-21 23:00:00,
2013-03-22 00:05:00,47.8,44.4,29.86,SSE,160,1.0,1.0,88,0.00,,,0.00,WeatherDisplay:10.37,2013-03-21 23:05:00,
2013-03-22 00:10:00,47.7,44.3,29.86,SSE,156,0.0,1.0,88,0.00,,,0.00,WeatherDisplay:10.37,2013-03-21 23:10:00,
2013-03-22 00:15:00,47.5,44.1,29.86,SSE,158,0.0,0.0,88,0.00,,,0.00,WeatherDisplay:10.37,2013-03-21 23:15:00,
2013-03-22 00:20:00,47.2,44.2,29.86,SSE,158,0.0,0.0,89,0.00,,,0.00,WeatherDisplay:10.37,2013-03-21 23:20:00,
2013-03-22 00:25:00,47.3,44.2,29.86,SSE,158,0.0,0.0,89,0.00,,,0.00,WeatherDisplay:10.37,2013-03-21 23:25:00,
2013-03-22 00:30:00,47.1,44.3,29.86,SSE,158,0.0,0.0,90,0.00,,,0.00,WeatherDisplay:10.37,2013-03-21 23:30:00,
2013-03-22 00:35:00,46.7,43.9,29.85,WSW,246,0.0,0.0,90,0.00,,,0.00,WeatherDisplay:10.37,2013-03-21 23:35:00,
2013-03-22 00:40:00,46.2,43.8,29.85,NNW,335,0.0,0.0,91,0.00,,,0.00,WeatherDisplay:10.37,2013-03-21 23:40:00,
2013-03-22 00:45:00,46.0,43.8,29.85,NNW,335,0.0,0.0,92,0.00,,,0.00,WeatherDisplay:10.37,2013-03-21 23:45:00,
2013-03-22 00:50:00,46.3,44.4,29.85,NNW,335,0.0,0.0,93,0.00,,,0.00,WeatherDisplay:10.37,2013-03-21 23:50:00,
2013-03-22 00:55:00,46.4,44.2,29.85,NNW,336,0.0,0.0,92,0.00,,,0.00,WeatherDisplay:10.37,2013-03-21 23:55:00,
2013-03-22 01:00:00,46.2,44.0,29.85,NNW,335,0.0,0.0,92,0.00,,,0.00,WeatherDisplay:10.37,2013-03-22 00:00:00,
2013-03-22 01:05:00,45.9,43.7,29.84,NNW,335,0.0,0.0,92,0.00,,,0.00,WeatherDisplay:10.37,2013-03-22 00:05:00,
2013-03-22 01:10:00,45.8,43.9,29.84,NNW,335,0.0,0.0,93,0.00,,,0.00,WeatherDisplay:10.37,2013-03-22 00:10:00,
2013-03-22 01:15:00,46.0,44.4,29.84,NNW,335,0.0,0.0,94,0.00,,,0.00,WeatherDisplay:10.37,2013-03-22 00:15:00,
2013-03-22 01:20:00,46.1,44.2,29.84,NNW,335,0.0,0.0,93,0.00,,,0.00,WeatherDisplay:10.37,2013-03-22 00:20:00,
2013-03-22 01:25:00,46.0,44.1,29.84,NNW,335,0.0,0.0,93,0.00,,,0.00,WeatherDisplay:10.37,2013-03-22 00:25:00,
2013-03-22 01:30:00,46.0,44.1,29.84,NNW,335,0.0,0.0,93,0.00,,,0.00,WeatherDisplay:10.37,2013-03-22 00:30:00,
2013-03-22 01:35:00,45.8,43.9,29.84,SSW,208,0.0,0.0,93,0.00,,,0.00,WeatherDisplay:10.37,2013-03-22 00:35:00,
2013-03-22 01:40:00,45.8,43.9,29.84,SSW,201,0.0,0.0,93,0.00,,,0.00,WeatherDisplay:10.37,2013-03-22 00:40:00,
2013-03-22 01:45:00,45.6,43.7,29.84,SSW,203,0.0,0.0,93,0.00,,,0.00,WeatherDisplay:10.37,2013-03-22 00:45:00,
2013-03-22 01:50:00,45.4,43.5,29.83,SW,231,0.0,0.0,93,0.00,,,0.00,WeatherDisplay:10.37,2013-03-22 00:50:00,
2013-03-22 01:55:00,45.2,43.3,29.84,SW,226,0.0,0.0,93,0.00,,,0.00,WeatherDisplay:10.37,2013-03-22 00:55:00,
2013-03-22 02:00:00,44.9,43.0,29.83,SW,224,0.0,0.0,93,0.00,,,0.00,WeatherDisplay:10.37,2013-03-22 01:00:00,
2013-03-22 02:05:00,44.8,42.9,29.84,SSE,159,0.0,0.0,93,0.00,,,0.00,WeatherDisplay:10.37,2013-03-22 01:05:00,
2013-03-22 02:10:00,44.4,42.5,29.83,SE,127,0.0,0.0,93,0.00,,,0.00,WeatherDisplay:10.37,2013-03-22 01:10:00,
2013-03-22 02:15:00,44.4,42.8,29.83,SSE,163,0.0,0.0,94,0.00,,,0.00,WeatherDisplay:10.37,2013-03-22 01:15:00,
2013-03-22 02:21:00,44.6,43.0,29.83,East,98,0.0,0.0,94,0.00,,,0.00,WeatherDisplay:10.37,2013-03-22 01:21:00,
2013-03-22 02:26:00,44.6,43.0,29.83,East,98,0.0,0.0,94,0.00,,,0.00,WeatherDisplay:10.37,2013-03-22 01:26:00,
2013-03-22 02:31:00,44.3,42.4,29.83,ESE,120,0.0,0.0,93,0.00,,,0.00,WeatherDisplay:10.37,2013-03-22 01:31:00,
2013-03-22 02:36:00,43.8,41.9,29.82,ESE,113,0.0,0.0,93,0.00,,,0.00,WeatherDisplay:10.37,2013-03-22 01:36:00,
2013-03-22 02:41:00,43.7,42.1,29.83,ESE,113,0.0,0.0,94,0.00,,,0.00,WeatherDisplay:10.37,2013-03-22 01:41:00,
2013-03-22 02:46:00,43.6,42.0,29.82,ESE,113,0.0,0.0,94,0.00,,,0.00,WeatherDisplay:10.37,2013-03-22 01:46:00,
2013-03-22 02:51:00,43.5,41.9,29.82,ESE,113,0.0,0.0,94,0.00,,,0.00,WeatherDisplay:10.37,2013-03-22 01:51:00,
2013-03-22 02:56:00,43.4,42.1,29.82,ESE,113,0.0,0.0,95,0.00,,,0.00,WeatherDisplay:10.37,2013-03-22 01:56:00,
2013-03-22 03:01:00,43.5,42.2,29.82,ESE,113,0.0,0.0,95,0.00,,,0.00,WeatherDisplay:10.37,2013-03-22 02:01:00,
2013-03-22 03:06:00,43.5,42.2,29.82,ESE,113,0.0,0.0,95,0.00,,,0.00,WeatherDisplay:10.37,2013-03-22 02:06:00,
2013-03-22 03:11:00,43.6,42.3,29.82,ESE,113,0.0,0.0,95,0.00,,,0.00,WeatherDisplay:10.37,2013-03-22 02:11:00,
2013-03-22 03:16:00,43.6,42.3,29.81,ESE,113,0.0,0.0,95,0.00,,,0.00,WeatherDisplay:10.37,2013-03-22 02:16:00,
2013-03-22 03:30:00,43.8,42.5,29.81,ESE,113,0.0,0.0,95,0.00,CLR,,0.00,WeatherDisplay:10.37,2013-03-22 02:30:00,
2013-03-22 04:05:00,43.4,42.1,29.81,ESE,112,0.0,0.0,95,0.00,CLR,,0.00,WeatherDisplay:10.37,2013-03-22 03:05:00,
2013-03-22 04:10:00,43.4,42.1,29.81,ESE,112,0.0,0.0,95,0.00,CLR,,0.00,WeatherDisplay:10.37,2013-03-22 03:10:00,
2013-03-22 04:15:00,43.4,42.1,29.81,ESE,112,0.0,0.0,95,0.00,CLR,,0.00,WeatherDisplay:10.37,2013-03-22 03:15:00,
2013-03-22 04:20:00,43.4,42.1,29.81,ESE,112,0.0,0.0,95,0.00,CLR,,0.00,WeatherDisplay:10.37,2013-03-22 03:20:00,
2013-03-22 04:25:00,43.4,42.1,29.81,ESE,112,0.0,0.0,95,0.00,CLR,,0.00,WeatherDisplay:10.37,2013-03-22 03:25:00,
2013-03-22 04:30:00,43.4,42.1,29.81,ESE,112,0.0,0.0,95,0.00,CLR,,0.00,WeatherDisplay:10.37,2013-03-22 03:30:00,
2013-03-22 04:35:00,43.0,41.9,29.80,SE,133,1.0,3.0,96,0.00,CLR,,0.00,WeatherDisplay:10.37,2013-03-22 03:35:00,
2013-03-22 04:40:00,43.0,41.9,29.80,SSE,158,1.0,3.0,96,0.00,CLR,,0.00,WeatherDisplay:10.37,2013-03-22 03:40:00,
2013-03-22 04:45:00,43.0,41.9,29.80,SSE,158,1.0,3.0,96,0.00,CLR,,0.00,WeatherDisplay:10.37,2013-03-22 03:45:00,
2013-03-22 04:50:00,43.0,41.9,29.80,SSE,158,1.0,3.0,96,0.00,CLR,,0.00,WeatherDisplay:10.37,2013-03-22 03:50:00,
2013-03-22 05:00:00,43.0,41.9,29.80,SSE,158,1.0,3.0,96,0.00,CLR,,0.00,WeatherDisplay:10.37,2013-03-22 04:00:00,
2013-03-22 05:05:00,44.6,43.8,29.80,SSE,158,1.0,3.0,97,0.00,CLR,,0.00,WeatherDisplay:10.37,2013-03-22 04:05:00,
2013-03-22 05:15:00,44.6,43.8,29.80,SSE,158,1.0,3.0,97,0.00,CLR,,0.00,WeatherDisplay:10.37,2013-03-22 04:15:00,
2013-03-22 05:20:00,44.6,43.8,29.80,SSE,158,1.0,3.0,97,0.00,CLR,,0.00,WeatherDisplay:10.37,2013-03-22 04:20:00,
2013-03-22 05:25:00,44.6,43.8,29.80,SSE,158,1.0,3.0,97,0.00,CLR,,0.00,WeatherDisplay:10.37,2013-03-22 04:25:00,
2013-03-22 05:30:00,44.6,43.8,29.80,SSE,158,1.0,3.0,97,0.00,CLR,,0.00,WeatherDisplay:10.37,2013-03-22 04:30:00,
2013-03-22 05:35:00,45.5,44.7,29.79,South,173,2.0,4.0,97,0.00,CLR,,0.00,WeatherDisplay:10.37,2013-03-22 04:35:00,
2013-03-22 05:45:00,45.5,44.7,29.79,South,180,2.0,4.0,97,0.00,CLR,,0.00,WeatherDisplay:10.37,2013-03-22 04:45:00,
2013-03-22 05:50:00,45.5,44.7,29.79,South,180,2.0,4.0,97,0.00,CLR,,0.00,WeatherDisplay:10.37,2013-03-22 04:50:00,
2013-03-22 05:55:00,45.5,44.7,29.79,South,180,2.0,4.0,97,0.00,CLR,,0.00,WeatherDisplay:10.37,2013-03-22 04:55:00,
2013-03-22 06:00:00,45.5,44.7,29.79,South,180,2.0,4.0,97,0.00,CLR,,0.00,WeatherDisplay:10.37,2013-03-22 05:00:00,
2013-03-22 06:05:00,45.3,44.5,29.78,South,180,2.0,4.0,97,0.00,CLR,,0.00,WeatherDisplay:10.37,2013-03-22 05:05:00,
2013-03-22 06:15:00,45.3,44.5,29.78,South,180,2.0,4.0,97,0.00,CLR,,0.00,WeatherDisplay:10.37,2013-03-22 05:15:00,
2013-03-22 06:20:00,45.3,44.5,29.78,South,180,2.0,4.0,97,0.00,CLR,,0.00,WeatherDisplay:10.37,2013-03-22 05:20:00,
2013-03-22 06:25:00,45.3,44.5,29.78,South,180,2.0,4.0,97,0.00,CLR,,0.00,WeatherDisplay:10.37,2013-03-22 05:25:00,
2013-03-22 06:30:00,45.3,44.5,29.78,South,180,2.0,4.0,97,0.00,CLR,,0.00,WeatherDisplay:10.37,2013-03-22 05:30:00,
2013-03-22 06:35:00,45.0,44.2,29.79,South,191,2.0,4.0,97,0.00,CLR,,0.00,WeatherDisplay:10.37,2013-03-22 05:35:00,
2013-03-22 06:40:00,45.0,44.2,29.79,SSW,202,2.0,4.0,97,0.00,CLR,,0.00,WeatherDisplay:10.37,2013-03-22 05:40:00,
2013-03-22 06:45:00,45.0,44.2,29.79,SSW,202,2.0,4.0,97,0.00,CLR,,0.00,WeatherDisplay:10.37,2013-03-22 05:45:00,
2013-03-22 06:50:00,45.0,44.2,29.79,SSW,202,2.0,4.0,97,0.00,CLR,,0.00,WeatherDisplay:10.37,2013-03-22 05:50:00,
2013-03-22 06:55:00,45.0,44.2,29.79,SSW,202,2.0,4.0,97,0.00,CLR,,0.00,WeatherDisplay:10.37,2013-03-22 05:55:00,
2013-03-22 07:00:00,45.0,44.2,29.79,SSW,202,2.0,4.0,97,0.00,CLR,,0.00,WeatherDisplay:10.37,2013-03-22 06:00:00,
2013-03-22 07:07:00,44.2,43.4,29.79,South,174,3.5,3.5,97,0.00,,,0.00,WeatherDisplay:10.37,2013-03-22 06:07:00,
2013-03-22 07:08:00,44.2,43.4,29.79,South,176,3.5,0.0,97,0.00,,,0.00,WeatherDisplay:10.37,2013-03-22 06:08:00,
2013-03-22 07:13:00,44.3,43.5,29.79,WSW,248,1.1,1.1,97,0.00,,,0.00,WeatherDisplay:10.37,2013-03-22 06:13:00,
2013-03-22 07:18:00,44.1,43.3,29.79,SSW,193,3.5,3.5,97,0.00,,,0.00,WeatherDisplay:10.37,2013-03-22 06:18:00,
2013-03-22 07:23:00,44.0,43.2,29.79,SW,226,3.5,3.5,97,0.00,,,0.00,WeatherDisplay:10.37,2013-03-22 06:23:00,
2013-03-22 07:28:00,44.1,43.3,29.79,South,191,2.3,2.3,97,0.00,,,0.00,WeatherDisplay:10.37,2013-03-22 06:28:00,
2013-03-22 07:33:00,44.3,43.8,29.79,South,177,1.1,1.1,98,0.00,,,0.00,WeatherDisplay:10.37,2013-03-22 06:33:00,
2013-03-22 07:38:00,44.5,44.0,29.79,South,176,0.0,0.0,98,0.00,,,0.00,WeatherDisplay:10.37,2013-03-22 06:38:00,
2013-03-22 07:43:00,44.7,44.2,29.79,South,174,1.1,1.1,98,0.00,,,0.00,WeatherDisplay:10.37,2013-03-22 06:43:00,
2013-03-22 07:48:00,45.0,44.5,29.79,South,179,2.3,2.3,98,0.00,,,0.00,WeatherDisplay:10.37,2013-03-22 06:48:00,
2013-03-22 07:54:00,45.2,44.7,29.80,South,179,2.3,2.3,98,0.00,,,0.00,WeatherDisplay:10.37,2013-03-22 06:54:00,
2013-03-22 07:59:00,45.5,45.0,29.79,South,170,2.3,2.3,98,0.00,,,0.00,WeatherDisplay:10.37,2013-03-22 06:59:00,
2013-03-22 08:04:00,45.8,45.3,29.79,SSW,204,2.3,2.3,98,0.00,,,0.00,WeatherDisplay:10.37,2013-03-22 07:04:00,
2013-03-22 08:09:00,46.5,46.0,29.79,SSW,195,2.3,2.3,98,0.00,,,0.00,WeatherDisplay:10.37,2013-03-22 07:09:00,
2013-03-22 08:14:00,46.9,46.4,29.79,SSE,150,3.5,3.5,98,0.00,,,0.00,WeatherDisplay:10.37,2013-03-22 07:14:00,
2013-03-22 08:19:00,47.1,46.6,29.78,SSE,167,2.3,2.3,98,0.00,,,0.00,WeatherDisplay:10.37,2013-03-22 07:19:00,
2013-03-22 08:24:00,47.1,46.6,29.78,SSE,163,2.3,2.3,98,0.00,,,0.00,WeatherDisplay:10.37,2013-03-22 07:24:00,
2013-03-22 08:29:00,47.3,46.8,29.78,SSE,160,3.5,3.5,98,0.00,,,0.00,WeatherDisplay:10.37,2013-03-22 07:29:00,
2013-03-22 08:34:00,47.4,46.9,29.78,SSW,194,2.3,2.3,98,0.00,,,0.00,WeatherDisplay:10.37,2013-03-22 07:34:00,
2013-03-22 08:39:00,47.5,46.7,29.78,South,190,3.5,3.5,97,0.00,,,0.00,WeatherDisplay:10.37,2013-03-22 07:39:00,
2013-03-22 08:44:00,47.6,47.1,29.78,SSW,201,3.5,3.5,98,0.00,,,0.00,WeatherDisplay:10.37,2013-03-22 07:44:00,
2013-03-22 08:49:00,47.8,47.3,29.78,SSW,198,3.5,3.5,98,0.00,,,0.00,WeatherDisplay:10.37,2013-03-22 07:49:00,
2013-03-22 08:54:00,47.9,47.4,29.78,SSW,210,3.5,3.5,98,0.00,,,0.00,WeatherDisplay:10.37,2013-03-22 07:54:00,
2013-03-22 08:59:00,48.1,47.3,29.78,South,180,2.3,2.3,97,0.00,,,0.00,WeatherDisplay:10.37,2013-03-22 07:59:00,
2013-03-22 09:04:00,48.3,47.8,29.78,SW,214,3.5,3.5,98,0.00,,,0.00,WeatherDisplay:10.37,2013-03-22 08:04:00,
2013-03-22 09:09:00,48.3,47.5,29.78,SSW,194,3.5,3.5,97,0.00,,,0.00,WeatherDisplay:10.37,2013-03-22 08:09:00,
2013-03-22 09:14:00,48.4,47.6,29.78,SSW,194,3.5,3.5,97,0.00,,,0.00,WeatherDisplay:10.37,2013-03-22 08:14:00,
2013-03-22 09:19:00,48.6,47.8,29.78,South,184,3.5,3.5,97,0.00,,,0.00,WeatherDisplay:10.37,2013-03-22 08:19:00,
2013-03-22 09:24:00,48.8,48.0,29.78,SSE,158,2.0,2.0,97,0.00,,,0.00,WeatherDisplay:10.37,2013-03-22 08:24:00,
2013-03-22 09:29:00,49.3,48.5,29.78,SW,229,1.1,1.1,97,0.00,,,0.00,WeatherDisplay:10.37,2013-03-22 08:29:00,
2013-03-22 09:34:00,49.7,48.9,29.78,SE,139,2.3,2.3,97,0.00,,,0.00,WeatherDisplay:10.37,2013-03-22 08:34:00,
2013-03-22 09:39:00,50.6,50.1,29.78,SSW,212,1.0,0.0,98,0.00,,,0.00,WeatherDisplay:10.37,2013-03-22 08:39:00,
2013-03-22 09:44:00,51.6,50.8,29.77,SE,135,1.1,1.1,97,0.00,,,0.00,WeatherDisplay:10.37,2013-03-22 08:44:00,
2013-03-22 09:49:00,52.5,51.1,29.77,WNW,285,2.0,2.0,95,0.00,,,0.00,WeatherDisplay:10.37,2013-03-22 08:49:00,
2013-03-22 09:54:00,52.4,50.4,29.78,WNW,288,2.3,2.3,93,0.00,,,0.00,WeatherDisplay:10.37,2013-03-22 08:54:00,
2013-03-22 09:59:00,53.2,50.9,29.78,South,191,3.5,3.5,92,0.00,,,0.00,WeatherDisplay:10.37,2013-03-22 08:59:00,
2013-03-22 10:04:00,53.6,49.8,29.78,WNW,284,3.5,3.5,87,0.00,,,0.00,WeatherDisplay:10.37,2013-03-22 09:04:00,
2013-03-22 10:09:00,53.9,50.7,29.77,NW,311,0.0,0.0,89,0.00,,,0.00,WeatherDisplay:10.37,2013-03-22 09:09:00,
2013-03-22 10:14:00,54.3,49.9,29.77,West,281,3.5,3.5,85,0.00,,,0.00,WeatherDisplay:10.37,2013-03-22 09:14:00,
2013-03-22 10:19:00,54.0,49.3,29.77,West,269,2.3,2.3,84,0.00,,,0.00,WeatherDisplay:10.37,2013-03-22 09:19:00,
2013-03-22 10:24:00,53.9,49.2,29.77,West,269,2.3,2.3,84,0.00,,,0.00,WeatherDisplay:10.37,2013-03-22 09:24:00,
2013-03-22 10:29:00,54.5,50.1,29.77,South,191,1.1,1.1,85,0.00,,,0.00,WeatherDisplay:10.37,2013-03-22 09:29:00,
2013-03-22 10:34:00,55.4,49.7,29.76,SE,129,3.5,3.5,81,0.00,,,0.00,WeatherDisplay:10.37,2013-03-22 09:34:00,
2013-03-22 10:39:00,55.8,49.7,29.76,WSW,250,2.3,2.3,80,0.00,,,0.00,WeatherDisplay:10.37,2013-03-22 09:39:00,
2013-03-22 10:44:00,56.4,49.6,29.76,SSE,156,5.8,5.8,78,0.00,,,0.00,WeatherDisplay:10.37,2013-03-22 09:44:00,
2013-03-22 10:49:00,56.4,49.6,29.76,SW,226,1.1,1.1,78,0.00,,,0.00,WeatherDisplay:10.37,2013-03-22 09:49:00,
2013-03-22 10:54:00,56.8,49.3,29.76,SSE,156,3.5,3.5,76,0.00,,,0.00,WeatherDisplay:10.37,2013-03-22 09:54:00,
2013-03-22 10:59:00,57.0,49.2,29.76,SSW,211,2.3,2.3,75,0.00,,,0.00,WeatherDisplay:10.37,2013-03-22 09:59:00,
2013-03-22 11:04:00,57.5,50.0,29.75,WSW,256,2.3,2.3,76,0.00,,,0.00,WeatherDisplay:10.37,2013-03-22 10:04:00,
2013-03-22 11:09:00,57.8,49.2,29.75,South,176,5.8,5.8,73,0.00,,,0.00,WeatherDisplay:10.37,2013-03-22 10:09:00,
2013-03-22 11:14:00,58.1,49.9,29.75,SW,219,3.5,3.5,74,0.00,,,0.00,WeatherDisplay:10.37,2013-03-22 10:14:00,
2013-03-22 11:19:00,58.8,50.2,29.74,SSW,200,5.8,5.8,73,0.00,,,0.00,WeatherDisplay:10.37,2013-03-22 10:19:00,
2013-03-22 11:24:00,59.1,49.7,29.74,SSW,198,4.6,4.6,71,0.00,,,0.00,WeatherDisplay:10.37,2013-03-22 10:24:00,
2013-03-22 11:29:00,59.5,50.5,29.74,South,190,7.0,7.0,72,0.00,,,0.00,WeatherDisplay:10.37,2013-03-22 10:29:00,
2013-03-22 11:34:00,59.9,50.8,29.74,SSW,212,6.9,6.9,72,0.00,,,0.00,WeatherDisplay:10.37,2013-03-22 10:34:00,
2013-03-22 11:39:00,59.9,51.6,29.73,SE,132,9.0,9.0,74,0.00,,,0.00,WeatherDisplay:10.37,2013-03-22 10:39:00,
2013-03-22 11:44:00,60.2,52.2,29.73,SSE,160,8.0,8.0,75,0.00,,,0.00,WeatherDisplay:10.37,2013-03-22 10:44:00,
2013-03-22 11:49:00,60.4,52.1,29.72,SSE,163,8.1,8.1,74,0.00,,,0.00,WeatherDisplay:10.37,2013-03-22 10:49:00,
2013-03-22 11:54:00,60.8,52.8,29.72,SE,144,7.0,7.0,75,0.00,,,0.00,WeatherDisplay:10.37,2013-03-22 10:54:00,
2013-03-22 11:59:00,61.0,53.0,29.72,SSE,165,9.2,9.2,75,0.00,,,0.00,WeatherDisplay:10.37,2013-03-22 10:59:00,
2013-03-22 12:04:00,61.4,52.7,29.72,SSE,149,11.5,11.5,73,0.00,,,0.00,WeatherDisplay:10.37,2013-03-22 11:04:00,
2013-03-22 12:09:00,61.8,53.4,29.71,South,177,11.5,11.5,74,0.00,,,0.00,WeatherDisplay:10.37,2013-03-22 11:09:00,
2013-03-22 12:14:00,62.9,53.4,29.71,SSE,149,11.5,11.5,71,0.00,,,0.00,WeatherDisplay:10.37,2013-03-22 11:14:00,
2013-03-22 12:19:00,63.1,53.9,29.71,SSE,149,13.8,13.8,72,0.00,,,0.00,WeatherDisplay:10.37,2013-03-22 11:19:00,
2013-03-22 12:24:00,62.9,53.7,29.71,SE,131,13.0,13.0,72,0.00,,,0.00,WeatherDisplay:10.37,2013-03-22 11:24:00,
2013-03-22 12:29:00,62.8,54.0,29.71,South,172,16.1,16.1,73,0.00,,,0.00,WeatherDisplay:10.37,2013-03-22 11:29:00,
2013-03-22 12:34:00,62.9,53.7,29.70,SE,125,11.5,11.5,72,0.00,,,0.00,WeatherDisplay:10.37,2013-03-22 11:34:00,
2013-03-22 12:39:00,63.2,53.3,29.70,SSE,163,15.0,15.0,70,0.00,,,0.00,WeatherDisplay:10.37,2013-03-22 11:39:00,
2013-03-22 12:44:00,63.6,53.2,29.70,South,190,15.0,15.0,69,0.00,,,0.00,WeatherDisplay:10.37,2013-03-22 11:44:00,
2013-03-22 12:49:00,63.7,53.7,29.69,SSE,158,14.0,14.0,70,0.00,,,0.00,WeatherDisplay:10.37,2013-03-22 11:49:00,
2013-03-22 12:54:00,63.7,52.9,29.69,South,170,15.0,15.0,68,0.00,,,0.00,WeatherDisplay:10.37,2013-03-22 11:54:00,
2013-03-22 12:59:00,64.1,54.1,29.69,SSE,155,13.8,13.8,70,0.00,,,0.00,WeatherDisplay:10.37,2013-03-22 11:59:00,
2013-03-22 13:04:00,63.7,53.7,29.68,SSE,162,13.8,13.8,70,0.00,,,0.00,WeatherDisplay:10.37,2013-03-22 12:04:00,
2013-03-22 13:09:00,63.8,53.8,29.68,SSE,148,13.8,13.8,70,0.00,,,0.00,WeatherDisplay:10.37,2013-03-22 12:09:00,
2013-03-22 13:14:00,64.3,54.7,29.68,SW,222,11.5,11.5,71,0.00,,,0.00,WeatherDisplay:10.37,2013-03-22 12:14:00,
2013-03-22 13:19:00,65.2,54.4,29.68,SE,126,17.3,17.3,68,0.00,,,0.00,WeatherDisplay:10.37,2013-03-22 12:19:00,
2013-03-22 13:24:00,64.7,54.3,29.67,SE,135,16.1,16.1,69,0.00,,,0.00,WeatherDisplay:10.37,2013-03-22 12:24:00,
2013-03-22 13:29:00,64.7,53.9,29.67,SSE,159,17.3,17.3,68,0.00,,,0.00,WeatherDisplay:10.37,2013-03-22 12:29:00,
2013-03-22 13:34:00,64.6,54.6,29.66,South,176,15.0,15.0,70,0.00,,,0.00,WeatherDisplay:10.37,2013-03-22 12:34:00,
2013-03-22 13:39:00,65.1,54.7,29.66,South,179,12.7,12.7,69,0.00,,,0.00,WeatherDisplay:10.37,2013-03-22 12:39:00,
2013-03-22 13:44:00,66.0,54.7,29.66,SSE,150,12.7,12.7,67,0.00,,,0.00,WeatherDisplay:10.37,2013-03-22 12:44:00,
2013-03-22 13:49:00,66.7,53.3,29.66,SSE,159,16.1,16.1,62,0.00,,,0.00,WeatherDisplay:10.37,2013-03-22 12:49:00,
2013-03-22 13:54:00,66.4,55.1,29.65,SSE,160,15.0,15.0,67,0.00,,,0.00,WeatherDisplay:10.37,2013-03-22 12:54:00,
2013-03-22 13:59:00,66.7,55.8,29.65,SSE,162,11.5,11.5,68,0.00,,,0.00,WeatherDisplay:10.37,2013-03-22 12:59:00,
2013-03-22 14:04:00,66.7,53.7,29.64,SE,141,17.3,17.3,63,0.00,,,0.00,WeatherDisplay:10.37,2013-03-22 13:04:00,
2013-03-22 14:09:00,67.3,52.0,29.64,SSE,152,21.9,21.9,58,0.00,,,0.00,WeatherDisplay:10.37,2013-03-22 13:09:00,
2013-03-22 14:14:00,67.6,53.2,29.63,South,181,19.6,19.6,60,0.00,,,0.00,WeatherDisplay:10.37,2013-03-22 13:14:00,
2013-03-22 14:19:00,68.1,52.3,29.63,SSW,195,23.0,23.0,57,0.00,,,0.00,WeatherDisplay:10.37,2013-03-22 13:19:00,
2013-03-22 14:24:00,68.3,51.0,29.63,South,183,19.6,19.6,54,0.00,,,0.00,WeatherDisplay:10.37,2013-03-22 13:24:00,
2013-03-22 14:29:00,68.4,50.1,29.63,SSE,149,20.7,20.7,52,0.00,,,0.00,WeatherDisplay:10.37,2013-03-22 13:29:00,
2013-03-22 14:34:00,68.5,50.7,29.63,SSW,211,19.6,19.6,53,0.00,,,0.00,WeatherDisplay:10.37,2013-03-22 13:34:00,
2013-03-22 14:39:00,68.3,50.0,29.63,South,169,22.0,22.0,52,0.00,,,0.00,WeatherDisplay:10.37,2013-03-22 13:39:00,
2013-03-22 14:44:00,67.7,50.5,29.62,SSW,200,24.2,24.2,54,0.00,,,0.00,WeatherDisplay:10.37,2013-03-22 13:44:00,
2013-03-22 14:49:00,67.2,49.0,29.62,SSE,163,21.9,21.9,52,0.00,,,0.00,WeatherDisplay:10.37,2013-03-22 13:49:00,
2013-03-22 14:54:00,66.9,52.1,29.62,SW,215,19.6,19.6,59,0.00,,,0.00,WeatherDisplay:10.37,2013-03-22 13:54:00,
2013-03-22 14:59:00,67.1,48.9,29.62,South,189,20.7,20.7,52,0.00,,,0.00,WeatherDisplay:10.37,2013-03-22 13:59:00,
2013-03-22 15:04:00,67.5,49.8,29.62,SW,215,19.6,19.6,53,0.00,,,0.00,WeatherDisplay:10.37,2013-03-22 14:04:00,
2013-03-22 15:09:00,67.4,51.2,29.62,SSE,153,16.1,16.1,56,0.00,,,0.00,WeatherDisplay:10.37,2013-03-22 14:09:00,
2013-03-22 15:14:00,67.5,48.2,29.62,SSE,165,20.7,20.7,50,0.00,,,0.00,WeatherDisplay:10.37,2013-03-22 14:14:00,
2013-03-22 15:19:00,66.8,52.5,29.62,SSE,152,19.6,19.6,60,0.00,,,0.00,WeatherDisplay:10.37,2013-03-22 14:19:00,
2013-03-22 15:24:00,66.7,50.5,29.62,SSW,193,11.0,11.0,56,0.00,,,0.00,WeatherDisplay:10.37,2013-03-22 14:24:00,
2013-03-22 15:29:00,66.2,51.4,29.62,SSE,162,15.0,15.0,59,0.00,,,0.00,WeatherDisplay:10.37,2013-03-22 14:29:00,
2013-03-22 15:34:00,66.0,51.3,29.62,SE,126,12.7,12.7,59,0.00,,,0.00,WeatherDisplay:10.37,2013-03-22 14:34:00,
2013-03-22 15:39:00,66.0,51.7,29.62,SSE,158,15.0,15.0,60,0.00,,,0.00,WeatherDisplay:10.37,2013-03-22 14:39:00,
2013-03-22 15:44:00,65.5,50.3,29.62,SSE,155,17.0,17.0,58,0.00,,,0.00,WeatherDisplay:10.37,2013-03-22 14:44:00,
2013-03-22 15:49:00,64.9,49.8,29.62,SSE,159,17.3,17.3,58,0.00,,,0.00,WeatherDisplay:10.37,2013-03-22 14:49:00,
2013-03-22 15:54:00,64.9,49.3,29.62,South,171,17.3,17.3,57,0.00,,,0.00,WeatherDisplay:10.37,2013-03-22 14:54:00,
2013-03-22 15:59:00,65.3,49.7,29.62,SE,129,13.8,13.8,57,0.00,,,0.00,WeatherDisplay:10.37,2013-03-22 14:59:00,
2013-03-22 16:04:00,64.6,48.5,29.62,SSE,152,18.4,18.4,56,0.00,,,0.00,WeatherDisplay:10.37,2013-03-22 15:04:00,
2013-03-22 16:09:00,64.2,49.6,29.62,South,184,18.4,18.4,59,0.00,,,0.00,WeatherDisplay:10.37,2013-03-22 15:09:00,
2013-03-22 16:14:00,64.4,49.3,29.62,South,173,18.4,18.4,58,0.00,,,0.00,WeatherDisplay:10.37,2013-03-22 15:14:00,
2013-03-22 16:19:00,64.2,48.6,29.62,South,176,16.1,16.1,57,0.00,,,0.00,WeatherDisplay:10.37,2013-03-22 15:19:00,
2013-03-22 16:24:00,64.2,48.6,29.62,SSE,150,18.0,18.0,57,0.00,,,0.00,WeatherDisplay:10.37,2013-03-22 15:24:00,
2013-03-22 16:29:00,64.1,48.5,29.62,SE,146,19.6,19.6,57,0.00,,,0.00,WeatherDisplay:10.37,2013-03-22 15:29:00,
2013-03-22 16:34:00,64.3,48.7,29.62,SSE,149,12.7,12.7,57,0.00,,,0.00,WeatherDisplay:10.37,2013-03-22 15:34:00,
2013-03-22 16:39:00,64.6,48.1,29.62,South,175,13.8,13.8,55,0.00,,,0.00,WeatherDisplay:10.37,2013-03-22 15:39:00,
2013-03-22 16:44:00,64.5,47.0,29.62,SSW,198,20.7,20.7,53,0.00,,,0.00,WeatherDisplay:10.37,2013-03-22 15:44:00,
2013-03-22 16:49:00,63.9,46.4,29.62,SSW,194,23.0,23.0,53,0.00,,,0.00,WeatherDisplay:10.37,2013-03-22 15:49:00,
2013-03-22 16:54:00,63.7,46.2,29.62,South,172,21.9,21.9,53,0.00,,,0.00,WeatherDisplay:10.37,2013-03-22 15:54:00,
2013-03-22 16:59:00,63.5,46.6,29.62,SSE,160,18.4,18.4,54,0.00,,,0.00,WeatherDisplay:10.37,2013-03-22 15:59:00,
2013-03-22 17:04:00,63.0,46.6,29.62,SSE,166,19.6,19.6,55,0.00,,,0.00,WeatherDisplay:10.37,2013-03-22 16:04:00,
2013-03-22 17:09:00,62.5,46.6,29.62,SE,142,26.5,26.5,56,0.00,,,0.00,WeatherDisplay:10.37,2013-03-22 16:09:00,
2013-03-22 17:14:00,62.1,46.7,29.62,SSW,195,21.0,21.0,57,0.00,,,0.00,WeatherDisplay:10.37,2013-03-22 16:14:00,
2013-03-22 17:19:00,61.9,46.5,29.62,South,174,21.9,21.9,57,0.00,,,0.00,WeatherDisplay:10.37,2013-03-22 16:19:00,
2013-03-22 17:24:00,61.8,46.9,29.62,SSE,152,19.6,19.6,58,0.00,,,0.00,WeatherDisplay:10.37,2013-03-22 16:24:00,
2013-03-22 17:29:00,61.4,46.9,29.61,SSE,166,23.0,23.0,59,0.00,,,0.00,WeatherDisplay:10.37,2013-03-22 16:29:00,
2013-03-22 17:34:00,61.1,47.5,29.62,SSE,150,20.7,20.7,61,0.00,,,0.00,WeatherDisplay:10.37,2013-03-22 16:34:00,
2013-03-22 17:39:00,60.9,47.8,29.62,SSE,165,19.6,19.6,62,0.00,,,0.00,WeatherDisplay:10.37,2013-03-22 16:39:00,
2013-03-22 17:44:00,60.9,47.8,29.62,South,187,23.0,23.0,62,0.00,,,0.00,WeatherDisplay:10.37,2013-03-22 16:44:00,
2013-03-22 17:49:00,60.8,47.3,29.62,SSW,195,20.0,20.0,61,0.00,,,0.00,WeatherDisplay:10.37,2013-03-22 16:49:00,
2013-03-22 17:54:00,60.5,47.0,29.61,South,186,19.6,19.6,61,0.00,,,0.00,WeatherDisplay:10.37,2013-03-22 16:54:00,
2013-03-22 17:59:00,60.2,46.7,29.61,SSE,160,25.3,25.3,61,0.00,,,0.00,WeatherDisplay:10.37,2013-03-22 16:59:00,
2013-03-22 18:04:00,60.1,46.2,29.61,SSE,166,26.5,26.5,60,0.00,,,0.00,WeatherDisplay:10.37,2013-03-22 17:04:00,
2013-03-22 18:09:00,60.1,46.2,29.62,SSE,163,19.6,19.6,60,0.00,,,0.00,WeatherDisplay:10.37,2013-03-22 17:09:00,
2013-03-22 18:14:00,59.9,46.0,29.62,South,170,20.7,20.7,60,0.00,,,0.00,WeatherDisplay:10.37,2013-03-22 17:14:00,
2013-03-22 18:19:00,59.9,46.0,29.63,SE,132,16.1,16.1,60,0.00,,,0.00,WeatherDisplay:10.37,2013-03-22 17:19:00,
2013-03-22 18:24:00,60.0,46.1,29.63,SSE,164,11.5,11.5,60,0.00,,,0.00,WeatherDisplay:10.37,2013-03-22 17:24:00,
2013-03-22 18:29:00,60.1,46.2,29.64,South,176,8.1,8.1,60,0.00,,,0.00,WeatherDisplay:10.37,2013-03-22 17:29:00,
2013-03-22 18:34:00,59.6,45.7,29.64,SE,143,10.4,10.4,60,0.00,,,0.00,WeatherDisplay:10.37,2013-03-22 17:34:00,
2013-03-22 18:39:00,59.1,45.7,29.64,SE,143,13.8,13.8,61,0.00,,,0.00,WeatherDisplay:10.37,2013-03-22 17:39:00,
2013-03-22 18:44:00,58.7,45.7,29.64,SE,140,9.2,9.2,62,0.00,,,0.00,WeatherDisplay:10.37,2013-03-22 17:44:00,
2013-03-22 18:49:00,58.3,45.8,29.64,South,179,9.2,9.2,63,0.00,,,0.00,WeatherDisplay:10.37,2013-03-22 17:49:00,
2013-03-22 18:54:00,57.8,46.5,29.64,SSE,163,9.2,9.2,66,0.00,,,0.00,WeatherDisplay:10.37,2013-03-22 17:54:00,
2013-03-22 18:59:00,57.3,46.8,29.65,SE,146,9.2,9.2,68,0.00,,,0.00,WeatherDisplay:10.37,2013-03-22 17:59:00,
2013-03-22 19:04:00,56.8,47.1,29.65,SSE,156,11.5,11.5,70,0.00,,,0.00,WeatherDisplay:10.37,2013-03-22 18:04:00,
2013-03-22 19:09:00,56.5,47.2,29.64,SSE,162,13.8,13.8,71,0.00,,,0.00,WeatherDisplay:10.37,2013-03-22 18:09:00,
2013-03-22 19:14:00,56.3,47.0,29.64,SSE,158,17.0,17.0,71,0.00,,,0.00,WeatherDisplay:10.37,2013-03-22 18:14:00,
2013-03-22 19:19:00,56.1,47.2,29.64,SSE,162,18.4,18.4,72,0.00,,,0.00,WeatherDisplay:10.37,2013-03-22 18:19:00,
2013-03-22 19:24:00,56.0,47.1,29.64,SSE,155,15.0,15.0,72,0.00,,,0.00,WeatherDisplay:10.37,2013-03-22 18:24:00,
2013-03-22 19:29:00,55.8,46.9,29.65,SSE,159,17.3,17.3,72,0.00,,,0.00,WeatherDisplay:10.37,2013-03-22 18:29:00,
2013-03-22 19:34:00,55.8,46.9,29.65,SSE,160,23.0,23.0,72,0.00,,,0.00,WeatherDisplay:10.37,2013-03-22 18:34:00,
2013-03-22 19:39:00,55.8,47.3,29.65,South,173,18.0,18.0,73,0.00,,,0.00,WeatherDisplay:10.37,2013-03-22 18:39:00,
2013-03-22 19:44:00,55.6,47.4,29.64,South,181,20.7,20.7,74,0.00,,,0.00,WeatherDisplay:10.37,2013-03-22 18:44:00,
2013-03-22 19:49:00,55.5,47.3,29.64,South,183,24.2,24.2,74,0.00,,,0.00,WeatherDisplay:10.37,2013-03-22 18:49:00,
2013-03-22 19:54:00,55.5,47.7,29.65,South,172,26.5,26.5,75,0.00,,,0.00,WeatherDisplay:10.37,2013-03-22 18:54:00,
2013-03-22 19:59:00,55.5,47.7,29.65,SSE,163,13.8,13.8,75,0.00,,,0.00,WeatherDisplay:10.37,2013-03-22 18:59:00,
2013-03-22 20:04:00,55.4,47.6,29.66,SSE,150,14.0,14.0,75,0.00,,,0.00,WeatherDisplay:10.37,2013-03-22 19:04:00,
2013-03-22 20:09:00,55.3,47.9,29.66,SSW,197,11.5,11.5,76,0.00,,,0.00,WeatherDisplay:10.37,2013-03-22 19:09:00,
2013-03-22 20:14:00,55.1,48.0,29.67,SW,233,11.5,11.5,77,0.00,,,0.00,WeatherDisplay:10.37,2013-03-22 19:14:00,
2013-03-22 20:19:00,54.9,48.2,29.67,SSE,147,9.0,9.0,78,0.00,,,0.00,WeatherDisplay:10.37,2013-03-22 19:19:00,
2013-03-22 20:24:00,54.8,48.1,29.68,SSE,163,5.8,5.8,78,0.00,,,0.00,WeatherDisplay:10.37,2013-03-22 19:24:00,
2013-03-22 20:29:00,54.6,48.2,29.68,SSW,205,3.0,3.0,79,0.00,,,0.00,WeatherDisplay:10.37,2013-03-22 19:29:00,
2013-03-22 20:34:00,54.6,47.9,29.68,SW,229,1.1,1.1,78,0.00,,,0.00,WeatherDisplay:10.37,2013-03-22 19:34:00,
2013-03-22 20:39:00,54.5,48.1,29.68,South,173,3.5,3.5,79,0.00,,,0.00,WeatherDisplay:10.37,2013-03-22 19:39:00,
2013-03-22 20:44:00,54.5,47.8,29.68,South,170,6.9,6.9,78,0.00,,,0.00,WeatherDisplay:10.37,2013-03-22 19:44:00,
2013-03-22 20:49:00,54.4,47.7,29.68,South,179,7.0,7.0,78,0.00,,,0.00,WeatherDisplay:10.37,2013-03-22 19:49:00,
2013-03-22 20:54:00,54.5,48.1,29.68,SSE,155,8.1,8.1,79,0.00,,,0.00,WeatherDisplay:10.37,2013-03-22 19:54:00,
2013-03-22 20:59:00,54.5,48.5,29.68,SSE,165,11.5,11.5,80,0.00,,,0.00,WeatherDisplay:10.37,2013-03-22 19:59:00,
2013-03-22 21:04:00,54.5,48.8,29.68,SSE,166,11.5,11.5,81,0.00,,,0.00,WeatherDisplay:10.37,2013-03-22 20:04:00,
2013-03-22 21:09:00,54.5,48.8,29.68,SSE,160,11.5,11.5,81,0.00,,,0.00,WeatherDisplay:10.37,2013-03-22 20:09:00,
2013-03-22 21:14:00,54.5,49.1,29.69,South,191,6.9,6.9,82,0.00,,,0.00,WeatherDisplay:10.37,2013-03-22 20:14:00,
2013-03-22 21:19:00,54.3,48.9,29.69,SSW,201,11.5,11.5,82,0.00,,,0.00,WeatherDisplay:10.37,2013-03-22 20:19:00,
2013-03-22 21:24:00,54.4,49.0,29.69,SSE,160,9.2,9.2,82,0.00,,,0.00,WeatherDisplay:10.37,2013-03-22 20:24:00,
2013-03-22 21:29:00,54.2,48.8,29.69,SSE,163,9.2,9.2,82,0.00,,,0.00,WeatherDisplay:10.37,2013-03-22 20:29:00,
2013-03-22 21:34:00,54.3,48.9,29.69,SSE,156,5.8,5.8,82,0.00,,,0.00,WeatherDisplay:10.37,2013-03-22 20:34:00,
2013-03-22 21:39:00,54.3,48.9,29.69,South,169,5.8,5.8,82,0.00,,,0.00,WeatherDisplay:10.37,2013-03-22 20:39:00,
2013-03-22 21:44:00,54.1,48.7,29.69,SSE,158,9.2,9.2,82,0.00,,,0.00,WeatherDisplay:10.37,2013-03-22 20:44:00,
2013-03-22 21:49:00,54.0,49.0,29.69,SSE,163,12.7,12.7,83,0.00,,,0.00,WeatherDisplay:10.37,2013-03-22 20:49:00,
2013-03-22 21:54:00,54.1,48.7,29.69,SSE,167,13.0,13.0,82,0.00,,,0.00,WeatherDisplay:10.37,2013-03-22 20:54:00,
2013-03-22 21:59:00,54.2,48.8,29.69,SSE,163,12.7,12.7,82,0.00,,,0.00,WeatherDisplay:10.37,2013-03-22 20:59:00,
2013-03-22 22:04:00,54.3,48.6,29.69,SSE,158,11.5,11.5,81,0.00,,,0.00,WeatherDisplay:10.37,2013-03-22 21:04:00,
2013-03-22 22:09:00,54.3,48.6,29.69,SSE,148,10.4,10.4,81,0.00,,,0.00,WeatherDisplay:10.37,2013-03-22 21:09:00,
2013-03-22 22:14:00,54.2,48.5,29.69,South,175,6.9,6.9,81,0.00,,,0.00,WeatherDisplay:10.37,2013-03-22 21:14:00,
2013-03-22 22:19:00,54.2,48.5,29.69,SSE,155,6.9,6.9,81,0.00,,,0.00,WeatherDisplay:10.37,2013-03-22 21:19:00,
2013-03-22 22:24:00,54.1,48.7,29.69,SSW,212,5.8,5.8,82,0.00,,,0.00,WeatherDisplay:10.37,2013-03-22 21:24:00,
2013-03-22 22:29:00,53.9,48.5,29.69,South,180,5.0,5.0,82,0.00,,,0.00,WeatherDisplay:10.37,2013-03-22 21:29:00,
2013-03-22 22:34:00,54.0,48.6,29.69,South,172,6.0,6.0,82,0.00,,,0.00,WeatherDisplay:10.37,2013-03-22 21:34:00,
2013-03-22 22:39:00,53.9,48.9,29.69,South,169,5.0,5.0,83,0.00,,,0.00,WeatherDisplay:10.37,2013-03-22 21:39:00,
2013-03-22 22:44:00,53.9,48.9,29.69,South,174,5.8,5.8,83,0.00,,,0.00,WeatherDisplay:10.37,2013-03-22 21:44:00,
2013-03-22 22:49:00,53.8,48.8,29.69,SSE,155,9.2,9.2,83,0.00,,,0.00,WeatherDisplay:10.37,2013-03-22 21:49:00,
2013-03-22 22:54:00,53.9,48.9,29.69,SSE,156,9.2,9.2,83,0.00,,,0.00,WeatherDisplay:10.37,2013-03-22 21:54:00,
2013-03-22 22:59:00,53.8,48.8,29.69,SSE,158,7.0,7.0,83,0.00,,,0.00,WeatherDisplay:10.37,2013-03-22 21:59:00,
2013-03-22 23:04:00,53.6,48.9,29.69,SSE,160,5.8,5.8,84,0.00,,,0.00,WeatherDisplay:10.37,2013-03-22 22:04:00,
2013-03-22 23:09:00,53.5,48.8,29.69,South,169,7.0,7.0,84,0.00,,,0.00,WeatherDisplay:10.37,2013-03-22 22:09:00,
2013-03-22 23:14:00,53.3,48.6,29.69,SE,140,6.9,6.9,84,0.00,,,0.00,WeatherDisplay:10.37,2013-03-22 22:14:00,
2013-03-22 23:19:00,53.3,48.9,29.68,SSE,155,6.9,6.9,85,0.00,,,0.00,WeatherDisplay:10.37,2013-03-22 22:19:00,
2013-03-22 23:24:00,53.3,48.9,29.69,SSE,150,9.0,9.0,85,0.00,,,0.00,WeatherDisplay:10.37,2013-03-22 22:24:00,
2013-03-22 23:29:00,53.3,48.9,29.69,SE,142,8.1,8.1,85,0.00,,,0.00,WeatherDisplay:10.37,2013-03-22 22:29:00,
2013-03-22 23:34:00,53.3,48.6,29.69,SE,131,8.1,8.1,84,0.00,,,0.00,WeatherDisplay:10.37,2013-03-22 22:34:00,
2013-03-22 23:39:00,53.0,48.3,29.68,SE,138,8.1,8.1,84,0.00,,,0.00,WeatherDisplay:10.37,2013-03-22 22:39:00,
2013-03-22 23:44:00,52.8,48.4,29.68,SSE,153,9.2,9.2,85,0.00,,,0.00,WeatherDisplay:10.37,2013-03-22 22:44:00,
2013-03-22 23:49:00,52.4,48.0,29.68,SSE,160,3.5,3.5,85,0.00,,,0.00,WeatherDisplay:10.37,2013-03-22 22:49:00,
2013-03-22 23:54:00,52.1,48.0,29.68,SSE,160,0.0,0.0,86,0.00,,,0.00,WeatherDisplay:10.37,2013-03-22 22:54:00,
2013-03-22 23:59:00,52.0,47.9,29.68,SE,146,5.0,5.0,86,0.00,,,0.00,WeatherDisplay:10.37,2013-03-22 22:59:00,